Time;durP1;ratioP1;P1;durP2;ratioP2;P2;SDS_P1;SDS_P2;PMS_P1;PMS_P2;Temp;Humidity;BMP_temperature;BMP_pressure;BME280_temperature;BME280_humidity;BME280_pressure;Samples;Min_cycle;Max_cycle;Signal;HPM_P1;HPM_P2
2022/04/25 00:39:00;;;;;;;20.60;18.50;;;;;;;11.16;82.54;98870.75;1087791;54;20053;-83
2022/04/25 01:14:23;;;;;;;19.92;17.55;;;;;;;11.24;81.97;98870.72;1087818;54;20030;-84
2022/04/25 01:15:28;;;;;;;18.50;16.58;;;;;;;11.25;81.80;98872.38;1088077;54;20030;-84
2022/04/25 01:16:32;;;;;;;17.83;16.02;;;;;;;11.29;81.59;98875.53;1088028;54;20042;-86
2022/04/25 01:17:34;;;;;;;17.83;15.93;;;;;;;11.35;81.69;98872.16;1088503;47;20780;-85
2022/04/25 01:18:39;;;;;;;19.15;17.15;;;;;;;11.30;81.52;98869.16;1088048;54;20033;-83
2022/04/25 01:19:41;;;;;;;18.27;16.35;;;;;;;11.34;81.68;98873.97;1087629;54;20037;-84
2022/04/25 01:20:45;;;;;;;20.33;18.27;;;;;;;11.35;81.32;98872.97;1087806;54;20025;-84
2022/04/25 01:21:52;;;;;;;23.13;20.73;;;;;;;11.28;81.59;98866.66;1087979;54;20083;-83
2022/04/25 01:27:15;;;;;;;22.83;20.58;;;;;;;11.27;81.84;98878.38;1088029;54;20014;-84
2022/04/25 01:28:17;;;;;;;22.45;20.15;;;;;;;11.25;81.84;98877.72;1088005;54;20019;-86
2022/04/25 01:29:19;;;;;;;21.73;19.52;;;;;;;11.26;81.49;98881.25;1087799;54;20039;-85
2022/04/25 01:30:24;;;;;;;23.40;21.02;;;;;;;11.22;81.57;98872.75;1087989;54;20019;-84
2022/04/25 01:31:26;;;;;;;21.80;19.50;;;;;;;11.22;81.41;98872.75;1095633;39;20733;-85
2022/04/25 01:32:30;;;;;;;21.70;19.48;;;;;;;11.24;81.40;98876.06;1088016;54;20055;-84
2022/04/25 01:33:32;;;;;;;22.77;20.48;;;;;;;11.19;81.36;98873.91;1090356;47;20034;-84
2022/04/25 01:34:38;;;;;;;25.50;22.70;;;;;;;11.15;81.71;98877.09;1088035;54;20039;-83
2022/04/25 01:35:40;;;;;;;25.63;23.02;;;;;;;11.13;81.65;98879.16;1087744;54;20030;-82
2022/04/25 01:36:44;;;;;;;24.05;21.55;;;;;;;11.14;81.66;98887.00;1087643;54;20035;-84
2022/04/25 01:37:46;;;;;;;24.15;21.30;;;;;;;11.13;81.49;98879.97;1088365;54;20045;-84
2022/04/25 01:38:51;;;;;;;24.00;21.50;;;;;;;11.16;81.58;98878.78;1088376;54;20042;-84
2022/04/25 01:39:58;;;;;;;25.83;22.63;;;;;;;11.10;81.54;98884.84;1088390;54;20019;-84
2022/04/25 01:41:00;;;;;;;25.13;22.45;;;;;;;11.12;81.50;98882.84;1088343;54;20035;-84
2022/04/25 01:42:05;;;;;;;25.73;23.13;;;;;;;11.02;81.72;98886.56;1088377;54;20039;-85
2022/04/25 01:43:09;;;;;;;25.50;22.90;;;;;;;11.06;81.40;98879.84;1098921;31;20765;-84
2022/04/25 01:44:10;;;;;;;24.38;21.88;;;;;;;11.11;81.71;98887.34;1094507;39;20542;-83
2022/04/25 01:45:14;;;;;;;23.77;21.23;;;;;;;11.12;81.25;98885.50;1088341;54;20115;-87
2022/04/25 01:46:17;;;;;;;25.02;22.48;;;;;;;11.10;81.38;98890.19;1088371;54;20038;-86
2022/04/25 01:47:22;;;;;;;27.17;24.38;;;;;;;11.06;81.59;98889.72;1088288;54;20705;-85
2022/04/25 01:48:24;;;;;;;24.98;22.38;;;;;;;11.07;81.66;98889.53;1092203;46;20035;-83
2022/04/25 01:49:28;;;;;;;24.98;22.38;;;;;;;11.06;81.31;98887.88;1088386;54;20126;-83
2022/04/25 01:50:30;;;;;;;27.85;24.95;;;;;;;11.00;81.78;98885.91;1088386;54;20025;-86
2022/04/25 01:51:34;;;;;;;28.05;25.15;;;;;;;10.95;81.70;98890.13;1088299;54;20688;-85
2022/04/25 01:52:38;;;;;;;26.15;23.42;;;;;;;10.97;81.71;98885.44;1088018;54;20030;-84
2022/04/25 01:53:40;;;;;;;27.45;24.75;;;;;;;10.95;81.73;98890.13;1088065;54;20034;-86
2022/04/25 01:54:44;;;;;;;29.95;26.85;;;;;;;10.87;82.01;98888.31;1088382;54;20021;-85
2022/04/25 01:55:48;;;;;;;27.83;24.83;;;;;;;10.91;82.03;98886.97;1088910;46;20022;-83
2022/04/25 01:56:52;;;;;;;25.67;23.15;;;;;;;10.96;81.97;98889.09;1088412;54;20019;-86
2022/04/25 01:57:57;;;;;;;25.60;22.85;;;;;;;10.91;81.82;98889.63;1088396;54;20030;-84
2022/04/25 01:58:58;;;;;;;28.92;26.02;;;;;;;10.86;82.03;98884.81;1088419;54;20034;-85
2022/04/25 02:00:03;;;;;;;27.38;24.63;;;;;;;10.86;81.96;98886.66;1089059;46;20030;-84
2022/04/25 02:01:06;;;;;;;26.55;23.80;;;;;;;10.87;82.22;98888.31;1088358;54;20774;-85
2022/04/25 02:02:10;;;;;;;27.70;24.73;;;;;;;10.84;82.09;98886.81;1088358;54;20777;-84
2022/04/25 02:03:13;;;;;;;27.10;24.35;;;;;;;10.83;81.79;98884.34;1088338;54;20018;-83
2022/04/25 02:04:17;;;;;;;25.92;23.15;;;;;;;10.88;81.96;98893.50;1088407;54;20128;-86
2022/04/25 02:05:19;;;;;;;25.52;22.83;;;;;;;10.82;82.24;98888.00;1088301;54;20043;-84
2022/04/25 02:06:23;;;;;;;26.63;23.92;;;;;;;10.83;81.97;98887.00;1088325;54;20049;-84
2022/04/25 02:07:28;;;;;;;27.17;24.42;;;;;;;10.82;82.07;98886.16;1088340;54;20058;-85
2022/04/25 02:08:29;;;;;;;24.92;22.50;;;;;;;10.80;82.07;98887.34;1088300;54;20063;-85
2022/04/25 02:09:33;;;;;;;25.38;22.67;;;;;;;10.83;82.03;98885.16;1087899;54;20065;-85
2022/04/25 02:10:35;;;;;;;24.08;21.67;;;;;;;10.87;81.81;98891.81;1088016;54;20041;-85
2022/04/25 02:11:42;;;;;;;24.95;22.45;;;;;;;10.88;81.48;98896.16;1088236;54;20130;-87
2022/04/25 02:12:44;;;;;;;24.33;21.90;;;;;;;10.83;81.71;98887.81;1087936;54;20707;-86
2022/04/25 02:13:50;;;;;;;23.08;20.67;;;;;;;10.86;81.34;98889.34;1087563;54;20050;-83
2022/04/25 02:14:54;;;;;;;22.77;20.48;;;;;;;10.87;81.58;98896.31;1087949;54;20034;-85
2022/04/25 02:15:56;;;;;;;22.38;19.98;;;;;;;10.91;81.36;98897.66;1087842;54;20042;-83
2022/04/25 02:17:01;;;;;;;21.40;19.15;;;;;;;10.93;81.01;98891.13;1087881;54;20030;-85
2022/04/25 02:18:03;;;;;;;22.33;20.02;;;;;;;10.92;81.19;98899.31;1087929;54;20034;-84
2022/04/25 02:19:08;;;;;;;23.20;20.90;;;;;;;10.90;81.12;98896.84;1087996;54;20045;-85
2022/04/25 02:20:11;;;;;;;22.35;20.05;;;;;;;10.91;80.97;98901.16;1088293;54;20027;-84
2022/04/25 02:21:16;;;;;;;20.35;18.20;;;;;;;10.95;80.90;98893.63;1088247;54;20100;-83
2022/04/25 02:22:20;;;;;;;22.30;19.92;;;;;;;10.91;80.86;98901.16;1088278;54;20037;-87
2022/04/25 02:23:21;;;;;;;24.17;21.67;;;;;;;10.90;81.10;98899.50;1088273;54;20041;-84
2022/04/25 02:24:26;;;;;;;23.17;20.73;;;;;;;10.86;81.13;98900.03;1088353;54;20018;-84
2022/04/25 02:25:27;;;;;;;24.25;21.70;;;;;;;10.86;81.44;98911.53;1088267;54;20037;-84
2022/04/25 02:26:32;;;;;;;22.80;20.50;;;;;;;10.90;81.22;98909.34;1087960;54;20049;-86
2022/04/25 02:27:36;;;;;;;22.00;19.73;;;;;;;10.94;81.14;98905.34;1087986;54;20083;-84
2022/04/25 02:28:41;;;;;;;22.45;20.15;;;;;;;10.91;81.12;98897.66;1088279;54;20031;-85
2022/04/25 02:29:48;;;;;;;22.50;19.50;;;;;;;10.92;81.33;98904.66;1088370;54;20035;-83
2022/04/25 02:30:51;;;;;;;21.92;19.73;;;;;;;10.95;81.09;98909.69;1088292;54;20042;-85
2022/04/25 02:31:55;;;;;;;22.40;20.00;;;;;;;10.90;80.88;98902.19;1088474;54;20665;-83
2022/04/25 02:32:56;;;;;;;22.13;19.75;;;;;;;10.93;80.88;98901.00;1090256;46;20029;-85
2022/04/25 02:34:02;;;;;;;20.67;18.58;;;;;;;10.97;80.79;98909.50;1088490;54;20095;-85
2022/04/25 02:35:05;;;;;;;23.17;20.88;;;;;;;10.91;81.00;98911.03;1091181;46;20142;-84
2022/04/25 02:36:29;;;;;;;21.20;19.10;;;;;;;10.91;80.50;98908.34;1088531;54;20042;-83
2022/04/25 02:37:31;;;;;;;21.70;19.48;;;;;;;10.91;80.41;98916.38;1088583;54;20018;-82
2022/04/25 02:38:46;;;;;;;20.90;18.83;;;;;;;10.90;80.44;98912.88;1088536;54;20070;-82
2022/04/25 02:39:48;;;;;;;21.83;19.63;;;;;;;10.87;80.42;98917.72;1089140;46;20059;-86
2022/04/25 02:41:04;;;;;;;22.33;20.02;;;;;;;10.86;80.50;98916.91;1088571;46;20026;-84
2022/04/25 02:42:08;;;;;;;21.75;19.55;;;;;;;10.89;80.45;98910.34;1088322;54;20026;-87
2022/04/25 02:43:12;;;;;;;21.05;18.88;;;;;;;10.90;80.44;98914.69;1087993;54;20042;-84
2022/04/25 02:44:17;;;;;;;20.55;18.48;;;;;;;10.93;80.58;98911.69;1088020;54;20035;-85
2022/04/25 02:45:18;;;;;;;20.98;18.80;;;;;;;10.93;80.33;98915.19;1088261;54;20059;-86
2022/04/25 02:46:22;;;;;;;19.95;17.85;;;;;;;10.97;80.14;98907.63;1088237;54;20058;-86
2022/04/25 02:47:24;;;;;;;21.17;18.98;;;;;;;10.92;80.44;98912.69;1088346;54;20026;-83
2022/04/25 02:48:28;;;;;;;20.40;18.30;;;;;;;10.97;80.47;98912.16;1088262;54;20034;-83
2022/04/25 02:49:33;;;;;;;20.95;18.85;;;;;;;10.95;80.60;98911.50;1088306;54;20042;-84
2022/04/25 02:50:34;;;;;;;22.25;19.95;;;;;;;10.95;80.42;98915.03;1088325;54;20055;-86
2022/04/25 02:51:39;;;;;;;21.13;19.00;;;;;;;10.93;80.42;98911.69;1091764;39;20651;-85
2022/04/25 02:52:40;;;;;;;22.08;19.85;;;;;;;10.95;80.07;98911.50;1088306;54;20035;-87
2022/04/25 02:53:45;;;;;;;21.98;19.77;;;;;;;10.91;80.41;98924.41;1088216;54;20094;-86
2022/04/25 02:54:47;;;;;;;20.33;18.23;;;;;;;10.92;79.98;98915.38;1088283;54;20042;-85
2022/04/25 02:55:51;;;;;;;20.73;18.52;;;;;;;10.95;80.16;98912.34;1088272;54;20030;-84
2022/04/25 02:56:52;;;;;;;19.85;17.80;;;;;;;10.95;79.96;98911.50;1088356;54;20030;-84
2022/04/25 02:57:57;;;;;;;20.83;18.73;;;;;;;10.93;80.13;98909.00;1088260;54;20034;-83
2022/04/25 02:59:01;;;;;;;19.55;17.55;;;;;;;10.97;80.00;98907.63;1088238;54;20065;-84
2022/04/25 03:00:08;;;;;;;19.17;17.27;;;;;;;10.99;79.97;98919.00;1087797;54;20034;-84
2022/04/25 03:01:12;;;;;;;21.95;19.55;;;;;;;10.96;79.80;98915.84;1092569;39;20295;-84
2022/04/25 03:02:14;;;;;;;19.60;17.60;;;;;;;10.98;79.67;98917.31;1088226;54;20026;-82
2022/04/25 03:03:21;;;;;;;19.80;17.80;;;;;;;10.95;79.72;98920.38;1088174;54;20037;-84
2022/04/25 03:04:25;;;;;;;19.02;17.05;;;;;;;10.96;79.63;98916.66;1088207;54;20038;-86
2022/04/25 03:05:27;;;;;;;20.65;18.55;;;;;;;10.91;79.61;98919.03;1088201;54;20042;-85
2022/04/25 03:06:31;;;;;;;22.27;19.98;;;;;;;10.87;79.52;98915.03;1088164;54;20027;-84
2022/04/25 03:07:33;;;;;;;23.50;21.00;;;;;;;10.81;79.53;98921.09;1088266;54;20039;-86
2022/04/25 03:08:37;;;;;;;23.13;20.73;;;;;;;10.73;79.76;98916.59;1088201;54;20022;-85
2022/04/25 03:09:39;;;;;;;24.80;22.30;;;;;;;10.65;80.05;98920.16;1088249;54;20090;-85
2022/04/25 03:10:45;;;;;;;23.90;21.50;;;;;;;10.65;79.88;98917.50;1088228;54;20026;-86
2022/04/25 03:11:50;;;;;;;24.92;22.40;;;;;;;10.58;80.41;98919.19;1088162;54;20764;-85
2022/04/25 03:12:51;;;;;;;23.38;21.08;;;;;;;10.59;80.24;98926.19;1089165;46;20042;-86
2022/04/25 03:13:56;;;;;;;22.80;20.60;;;;;;;10.65;80.00;98925.50;1088078;54;20107;-85
2022/04/25 03:15:00;;;;;;;23.52;21.05;;;;;;;10.67;79.71;98928.84;1088220;54;20059;-84
2022/04/25 03:16:05;;;;;;;23.55;20.60;;;;;;;10.67;79.91;98926.19;1087980;54;20082;-85
2022/04/25 03:17:07;;;;;;;21.58;19.38;;;;;;;10.65;79.53;98924.66;1087763;54;20055;-85
2022/04/25 03:18:12;;;;;;;22.48;20.17;;;;;;;10.62;79.35;98923.16;1088211;54;20037;-86
2022/04/25 03:19:13;;;;;;;22.45;19.63;;;;;;;10.62;79.20;98925.84;1088191;54;20098;-86
2022/04/25 03:20:18;;;;;;;22.65;20.35;;;;;;;10.61;79.44;98924.19;1088245;54;20048;-85
2022/04/25 03:21:23;;;;;;;21.17;19.05;;;;;;;10.58;79.45;98919.19;1088185;54;20030;-85
2022/04/25 03:22:24;;;;;;;19.83;17.88;;;;;;;10.63;79.00;98924.84;1088188;54;20042;-87
2022/04/25 03:23:29;;;;;;;18.70;16.80;;;;;;;10.62;79.04;98923.16;1088166;54;20031;-85
2022/04/25 03:24:31;;;;;;;20.13;18.02;;;;;;;10.60;78.87;98926.03;1088222;54;20035;-87
2022/04/25 03:25:36;;;;;;;19.20;17.20;;;;;;;10.61;78.84;98927.69;1088222;54;20025;-85
2022/04/25 03:26:39;;;;;;;20.40;18.35;;;;;;;10.58;78.67;98924.53;1088142;54;20044;-85
2022/04/25 03:27:43;;;;;;;19.45;17.45;;;;;;;10.61;78.51;98932.19;1088200;54;20042;-84
2022/04/25 03:28:48;;;;;;;17.50;15.65;;;;;;;10.64;78.61;98923.00;1088220;54;20038;-83
2022/04/25 03:29:49;;;;;;;18.67;16.80;;;;;;;10.65;78.47;98930.84;1088147;54;20038;-83
2022/04/25 03:30:56;;;;;;;18.15;16.25;;;;;;;10.67;78.56;98933.34;1089041;39;20505;-85
2022/04/25 03:31:58;;;;;;;19.65;17.70;;;;;;;10.55;78.42;98927.53;1088207;54;20034;-85
2022/04/25 03:33:03;;;;;;;19.15;17.17;;;;;;;10.53;78.35;98932.22;1087797;54;20030;-85
2022/04/25 03:34:05;;;;;;;18.00;16.20;;;;;;;10.54;78.53;98933.88;1087925;54;20043;-84
2022/04/25 03:35:10;;;;;;;18.60;16.70;;;;;;;10.56;78.58;98929.22;1088157;54;20737;-84
2022/04/25 03:36:14;;;;;;;17.63;15.82;;;;;;;10.55;78.51;98936.38;1088124;54;20064;-85
2022/04/25 03:37:18;;;;;;;18.23;16.30;;;;;;;10.57;78.49;98934.38;1088184;54;20090;-85
2022/04/25 03:38:21;;;;;;;16.63;14.93;;;;;;;10.61;78.28;98934.88;1088182;54;20038;-85
2022/04/25 03:39:25;;;;;;;17.50;15.70;;;;;;;10.61;78.30;98942.88;1088223;54;20019;-83
2022/04/25 03:40:27;;;;;;;16.75;15.00;;;;;;;10.65;77.97;98940.69;1088197;54;20021;-84
2022/04/25 03:41:31;;;;;;;15.93;14.32;;;;;;;10.64;78.07;98944.38;1088144;54;20037;-83
2022/04/25 03:42:34;;;;;;;17.00;15.27;;;;;;;10.63;78.16;98937.38;1088801;46;20040;-84
2022/04/25 03:43:38;;;;;;;15.75;14.15;;;;;;;10.65;77.91;98949.56;1088161;54;20090;-84
2022/04/25 03:44:40;;;;;;;15.98;14.38;;;;;;;10.67;78.08;98946.72;1088194;54;20030;-84
2022/04/25 03:45:44;;;;;;;15.75;14.10;;;;;;;10.66;78.05;98943.22;1088189;54;20042;-84
2022/04/25 03:46:49;;;;;;;15.43;13.82;;;;;;;10.67;78.02;98950.22;1088125;54;20035;-84
2022/04/25 03:47:53;;;;;;;17.65;15.85;;;;;;;10.50;78.33;98943.25;1096955;31;20737;-84
2022/04/25 03:48:55;;;;;;;19.25;17.15;;;;;;;10.39;79.11;98950.63;1088096;54;20063;-86
2022/04/25 03:49:59;;;;;;;21.77;19.45;;;;;;;10.25;79.69;98943.28;1087745;54;20039;-84
2022/04/25 03:51:04;;;;;;;21.83;19.33;;;;;;;10.19;80.02;98954.66;1088072;54;20026;-84
2022/04/25 03:52:07;;;;;;;20.08;18.08;;;;;;;10.11;80.37;98953.63;1088237;54;20022;-84
2022/04/25 03:53:14;;;;;;;22.23;19.83;;;;;;;10.08;80.50;98956.66;1088187;54;20031;-84
2022/04/25 03:57:09;;;;;;;21.23;19.13;;;;;;;10.15;80.29;98952.31;1088186;54;20022;-87
2022/04/25 03:58:13;;;;;;;18.85;16.90;;;;;;;10.18;80.18;98958.31;1091334;46;20042;-83
2022/04/25 03:59:15;;;;;;;19.20;17.20;;;;;;;10.27;79.61;98959.97;1088197;54;20059;-86
2022/04/25 04:00:19;;;;;;;18.63;16.67;;;;;;;10.34;79.53;98963.63;1088023;54;20030;-86
2022/04/25 04:01:23;;;;;;;17.48;15.63;;;;;;;10.38;79.22;98961.47;1088209;54;20034;-84
2022/04/25 04:02:27;;;;;;;17.35;15.52;;;;;;;10.42;79.24;98960.97;1088014;54;20042;-86
2022/04/25 04:03:32;;;;;;;16.00;14.30;;;;;;;10.47;78.73;98954.28;1087775;54;20034;-85
2022/04/25 04:04:33;;;;;;;16.08;14.32;;;;;;;10.49;78.61;98961.13;1087801;54;20039;-85
2022/04/25 04:05:38;;;;;;;18.70;15.93;;;;;;;10.37;79.13;98966.00;1087824;54;20042;-87
2022/04/25 04:06:42;;;;;;;19.45;17.35;;;;;;;10.25;79.63;98961.97;1087696;54;20049;-86
2022/04/25 04:07:44;;;;;;;20.80;18.70;;;;;;;10.24;79.63;98962.97;1087783;54;20030;-86
2022/04/25 04:08:48;;;;;;;18.33;16.35;;;;;;;10.33;79.17;98969.16;1087754;54;20059;-83
2022/04/25 04:09:50;;;;;;;19.60;17.60;;;;;;;10.35;79.01;98981.34;1087761;54;20034;-85
2022/04/25 04:10:55;;;;;;;17.05;15.35;;;;;;;10.40;78.98;98972.84;1087673;54;20687;-85
2022/04/25 04:11:56;;;;;;;17.20;15.40;;;;;;;10.40;78.91;98981.66;1088071;54;20083;-85
2022/04/25 04:13:00;;;;;;;16.77;15.07;;;;;;;10.45;78.93;98979.34;1088217;54;20018;-84
2022/04/25 04:14:02;;;;;;;17.70;15.77;;;;;;;10.42;79.09;98985.00;1087949;54;20022;-82
2022/04/25 04:15:07;;;;;;;17.40;15.50;;;;;;;10.39;78.85;98989.88;1090946;46;20034;-84
2022/04/25 04:16:11;;;;;;;19.20;17.20;;;;;;;10.30;79.47;98989.00;1088128;54;20042;-82
2022/04/25 04:17:14;;;;;;;17.02;15.32;;;;;;;10.38;79.16;98991.72;1088161;54;20038;-84
2022/04/25 04:18:21;;;;;;;17.40;15.70;;;;;;;10.43;78.95;98994.69;1092186;39;20711;-84
2022/04/25 04:19:23;;;;;;;17.80;16.00;;;;;;;10.44;79.12;98993.69;1088157;54;20022;-87
2022/04/25 04:20:27;;;;;;;18.80;16.80;;;;;;;10.37;78.96;98992.72;1088081;54;20082;-83
2022/04/25 04:21:29;;;;;;;19.77;17.67;;;;;;;10.34;79.24;98995.69;1088086;54;20078;-83
2022/04/25 04:22:36;;;;;;;21.63;19.33;;;;;;;10.30;79.13;98989.84;1088120;54;20750;-84
2022/04/25 04:23:37;;;;;;;22.55;19.17;;;;;;;10.24;79.66;98997.69;1088106;54;20035;-83
2022/04/25 04:24:41;;;;;;;21.92;19.73;;;;;;;10.23;79.51;98991.53;1088109;54;20027;-83
2022/04/25 04:25:43;;;;;;;22.13;19.85;;;;;;;10.18;79.74;98998.38;1088137;54;20042;-83
2022/04/25 04:26:47;;;;;;;22.05;19.65;;;;;;;10.21;79.81;98998.03;1087811;54;20030;-84
2022/04/25 04:27:52;;;;;;;22.40;20.20;;;;;;;10.21;79.76;99000.69;1087716;54;20042;-83
2022/04/25 04:28:54;;;;;;;23.92;21.52;;;;;;;10.10;80.21;99002.72;1088108;54;20039;-84
2022/04/25 04:29:58;;;;;;;24.98;22.45;;;;;;;10.11;80.44;99001.69;1088132;54;20031;-83
2022/04/25 04:31:04;;;;;;;25.20;22.60;;;;;;;10.06;80.94;99005.91;1088063;54;20079;-85
2022/04/25 04:32:06;;;;;;;23.85;21.33;;;;;;;10.05;80.57;99001.56;1088080;54;20035;-83
2022/04/25 04:33:11;;;;;;;24.00;21.40;;;;;;;10.10;80.44;99013.41;1088114;54;20037;-83
2022/04/25 04:34:15;;;;;;;23.67;21.17;;;;;;;10.14;80.80;99009.38;1088129;54;20034;-82
2022/04/25 04:36:37;;;;;;;22.73;20.25;;;;;;;10.03;81.01;99015.06;1087996;54;20026;-83
2022/04/25 04:37:40;;;;;;;22.92;20.58;;;;;;;10.06;80.51;99004.06;1088112;54;20783;-83
2022/04/25 04:38:44;;;;;;;22.40;20.00;;;;;;;10.08;80.40;99010.06;1088075;54;20094;-83
2022/04/25 04:39:45;;;;;;;20.30;18.13;;;;;;;10.11;80.40;99007.03;1088092;54;20150;-83
2022/04/25 04:40:50;;;;;;;21.13;18.92;;;;;;;10.12;80.52;99008.72;1088065;54;20011;-83
2022/04/25 04:41:51;;;;;;;20.55;18.38;;;;;;;10.18;80.19;99009.06;1088096;54;20014;-84
2022/04/25 04:42:56;;;;;;;19.35;17.27;;;;;;;10.20;80.31;99001.72;1087861;54;20023;-83
2022/04/25 04:43:58;;;;;;;19.05;17.10;;;;;;;10.22;80.05;99005.03;1087625;54;20060;-83
2022/04/25 04:45:02;;;;;;;18.60;16.77;;;;;;;10.21;80.23;99006.88;1087914;54;20030;-84
2022/04/25 04:46:03;;;;;;;18.42;16.52;;;;;;;10.19;80.04;99005.41;1088030;54;20023;-81
2022/04/25 04:47:08;;;;;;;19.23;17.08;;;;;;;10.21;80.19;99008.72;1091538;39;20611;-82
2022/04/25 04:48:09;;;;;;;18.73;16.77;;;;;;;10.21;80.23;99003.38;1088068;54;20047;-82
2022/04/25 04:49:14;;;;;;;18.38;16.48;;;;;;;10.25;79.80;99004.72;1088037;54;20034;-84
2022/04/25 04:50:18;;;;;;;17.67;15.88;;;;;;;10.26;79.95;99012.53;1089247;47;20060;-85
2022/04/25 04:51:22;;;;;;;18.38;16.48;;;;;;;10.24;79.94;99014.56;1089443;39;20647;-83
2022/04/25 04:52:24;;;;;;;18.13;16.23;;;;;;;10.24;79.80;99021.72;1088059;54;20029;-84
2022/04/25 04:53:28;;;;;;;18.27;16.38;;;;;;;10.23;79.63;99012.06;1088041;54;20092;-84
2022/04/25 04:54:29;;;;;;;19.38;17.38;;;;;;;10.26;79.39;99022.41;1088029;54;20758;-82
2022/04/25 04:55:36;;;;;;;20.10;18.00;;;;;;;10.22;79.55;99013.06;1088072;54;20055;-85
2022/04/25 04:56:37;;;;;;;19.98;17.98;;;;;;;10.17;79.39;99012.72;1087982;54;20702;-84
2022/04/25 04:57:42;;;;;;;19.75;17.65;;;;;;;10.14;79.79;99011.25;1088055;54;20035;-84
2022/04/25 04:58:47;;;;;;;20.85;18.65;;;;;;;10.08;80.24;99011.88;1088064;54;20023;-84
2022/04/25 04:59:48;;;;;;;22.38;20.08;;;;;;;10.09;80.06;99010.88;1087851;54;20054;-83
2022/04/25 05:00:53;;;;;;;21.95;19.65;;;;;;;10.09;80.26;99014.41;1087659;54;20082;-82
2022/04/25 05:01:54;;;;;;;20.98;18.90;;;;;;;10.10;80.36;99024.09;1088038;54;20038;-82
2022/04/25 05:02:59;;;;;;;20.17;18.15;;;;;;;10.12;80.16;99024.75;1088136;54;20034;-82
2022/04/25 05:04:01;;;;;;;21.90;19.60;;;;;;;10.09;80.48;99027.75;1092062;39;20924;-81
2022/04/25 05:05:06;;;;;;;21.67;19.48;;;;;;;10.08;80.16;99031.44;1091611;39;20618;-84
2022/04/25 05:06:13;;;;;;;19.90;17.92;;;;;;;10.14;80.20;99035.28;1088246;54;20049;-85
2022/04/25 05:07:15;;;;;;;18.27;16.48;;;;;;;10.22;79.96;99039.75;1088229;54;20048;-84
2022/04/25 05:08:21;;;;;;;19.63;17.63;;;;;;;10.26;80.03;99043.78;1088255;54;20034;-84
2022/04/25 05:09:22;;;;;;;20.05;18.02;;;;;;;10.28;79.89;99042.59;1088240;54;20015;-84
2022/04/25 05:10:29;;;;;;;19.98;17.70;;;;;;;10.29;79.50;99040.78;1088331;54;20010;-84
2022/04/25 05:11:31;;;;;;;18.00;16.10;;;;;;;10.36;79.59;99047.13;1088222;47;20038;-84
2022/04/25 05:12:46;;;;;;;20.17;18.10;;;;;;;10.33;79.79;99043.94;1089159;47;20029;-84
2022/04/25 05:13:51;;;;;;;20.90;18.80;;;;;;;10.21;80.15;99046.94;1088463;54;20057;-85
2022/04/25 05:14:53;;;;;;;22.75;20.35;;;;;;;10.24;79.88;99048.44;1088792;46;21099;-85
2022/04/25 05:15:58;;;;;;;19.75;17.40;;;;;;;10.34;79.46;99046.44;1088372;54;20034;-82
2022/04/25 05:17:00;;;;;;;20.27;18.10;;;;;;;10.39;79.26;99046.78;1087993;54;20034;-83
2022/04/25 05:18:04;;;;;;;17.92;16.02;;;;;;;10.48;79.10;99049.47;1088144;54;20045;-85
2022/04/25 05:19:06;;;;;;;17.00;15.25;;;;;;;10.55;79.06;99053.16;1088373;54;20035;-83
2022/04/25 05:20:12;;;;;;;17.88;15.55;;;;;;;10.56;78.66;99049.47;1088355;54;20694;-86
2022/04/25 05:21:16;;;;;;;17.15;15.35;;;;;;;10.60;78.53;99056.13;1088816;46;20053;-84
2022/04/25 05:22:21;;;;;;;17.17;15.38;;;;;;;10.63;78.62;99054.97;1088331;54;21137;-85
2022/04/25 05:23:22;;;;;;;17.95;14.80;;;;;;;10.65;78.25;99059.16;1088322;54;20035;-85
2022/04/25 05:24:27;;;;;;;19.13;16.38;;;;;;;10.68;78.19;99055.28;1088406;54;20035;-88
2022/04/25 05:25:29;;;;;;;16.95;15.25;;;;;;;10.70;78.28;99055.97;1088343;54;20034;-84
2022/04/25 05:26:33;;;;;;;16.05;14.38;;;;;;;10.75;78.11;99057.13;1088318;54;20026;-87
2022/04/25 05:27:35;;;;;;;17.50;15.60;;;;;;;10.78;78.08;99061.28;1088290;54;20045;-86
2022/04/25 05:28:39;;;;;;;18.85;16.95;;;;;;;10.67;78.32;99062.50;1088309;54;20022;-86
2022/04/25 05:29:41;;;;;;;17.90;15.55;;;;;;;10.77;78.37;99063.13;1088364;54;20030;-85
2022/04/25 05:30:46;;;;;;;19.98;17.88;;;;;;;10.64;78.58;99060.16;1091602;39;20618;-85
2022/04/25 05:31:49;;;;;;;20.73;18.63;;;;;;;10.62;78.83;99067.50;1088591;54;20022;-87
2022/04/25 05:32:55;;;;;;;22.33;20.13;;;;;;;10.56;78.78;99065.50;1088564;54;20037;-85
2022/04/25 05:33:57;;;;;;;21.90;19.60;;;;;;;10.60;79.00;99061.47;1088445;54;20090;-84
2022/04/25 05:36:05;;;;;;;24.50;22.08;;;;;;;10.50;78.58;99061.66;1088326;54;20033;-85
2022/04/25 05:37:09;;;;;;;26.55;23.85;;;;;;;10.43;78.79;99060.69;1089352;39;20611;-85
2022/04/25 05:38:14;;;;;;;28.15;25.30;;;;;;;10.34;79.16;99065.16;1089809;39;20674;-85
2022/04/25 05:39:16;;;;;;;26.48;23.77;;;;;;;10.41;79.39;99065.34;1088393;54;20082;-84
2022/04/25 05:40:22;;;;;;;26.73;23.92;;;;;;;10.40;79.09;99072.50;1088446;54;20037;-85
2022/04/25 05:41:24;;;;;;;27.30;24.50;;;;;;;10.39;79.08;99078.84;1088356;54;20086;-85
2022/04/25 05:42:31;;;;;;;27.73;24.92;;;;;;;10.43;79.34;99069.50;1088403;54;20042;-85
2022/04/25 05:43:36;;;;;;;25.80;23.20;;;;;;;10.41;79.08;99076.03;1088365;54;20015;-87
2022/04/25 05:44:38;;;;;;;27.23;24.50;;;;;;;10.48;79.05;99084.22;1088462;54;20034;-85
2022/04/25 05:45:42;;;;;;;26.35;23.65;;;;;;;10.42;79.11;99081.19;1088423;54;20027;-84
2022/04/25 05:46:44;;;;;;;25.73;23.13;;;;;;;10.45;79.52;99080.03;1088323;54;20062;-84
2022/04/25 05:47:49;;;;;;;26.67;23.98;;;;;;;10.42;79.05;99081.19;1088378;54;20733;-84
2022/04/25 05:52:48;;;;;;;26.25;23.45;;;;;;;10.40;79.44;99088.53;1088347;54;20776;-84
2022/04/25 05:53:50;;;;;;;26.65;23.85;;;;;;;10.40;79.06;99087.72;1088400;54;20035;-87
2022/04/25 05:54:55;;;;;;;26.48;23.80;;;;;;;10.43;79.29;99082.88;1088379;54;20038;-85
2022/04/25 05:55:56;;;;;;;25.20;22.60;;;;;;;10.51;79.15;99086.53;1088473;54;20092;-84
2022/04/25 05:57:03;;;;;;;23.30;20.80;;;;;;;10.54;78.71;99083.53;1088323;54;20041;-83
2022/04/25 05:58:06;;;;;;;24.80;22.17;;;;;;;10.54;78.57;99088.88;1088344;54;20038;-85
2022/04/25 05:59:11;;;;;;;22.20;20.00;;;;;;;10.65;78.75;99091.22;1088357;54;20031;-82
2022/04/25 06:00:14;;;;;;;23.50;21.00;;;;;;;10.62;78.52;99091.53;1088349;54;20035;-84
2022/04/25 06:01:18;;;;;;;23.58;21.13;;;;;;;10.65;78.19;99091.22;1088409;54;20022;-87
2022/04/25 06:02:23;;;;;;;23.30;20.80;;;;;;;10.67;78.08;99091.91;1088435;54;20034;-84
2022/04/25 06:03:28;;;;;;;21.23;18.98;;;;;;;10.66;77.96;99090.22;1088399;54;20054;-85
2022/04/25 06:04:30;;;;;;;22.27;19.23;;;;;;;10.70;78.15;99090.72;1088317;54;20046;-84
2022/04/25 06:06:39;;;;;;;21.83;19.52;;;;;;;10.67;77.66;99094.56;1091911;39;21133;-86
2022/04/25 06:07:53;;;;;;;20.73;18.63;;;;;;;10.72;77.79;99096.72;1088033;54;20829;-85
2022/04/25 06:08:54;;;;;;;20.50;18.40;;;;;;;10.76;77.63;99101.56;1088408;54;20023;-85
2022/04/25 06:11:09;;;;;;;17.73;15.83;;;;;;;10.90;77.44;99088.50;1103007;31;21114;31
2022/04/25 06:12:22;;;;;;;17.70;16.00;;;;;;;10.92;77.13;99090.00;1075226;54;20034;31
2022/04/25 06:13:33;;;;;;;17.85;15.95;;;;;;;10.98;76.78;99091.16;1075430;54;20090;31
2022/04/25 06:20:07;;;;;;;25.02;21.45;;;;;;;10.72;77.19;99084.19;1088206;54;20031;-85
2022/04/25 06:21:09;;;;;;;23.52;20.98;;;;;;;10.72;77.23;99086.88;1088372;54;20034;-85
2022/04/25 06:22:13;;;;;;;25.95;22.98;;;;;;;10.65;77.28;99095.72;1088492;54;20026;-85
2022/04/25 06:23:20;;;;;;;24.05;21.65;;;;;;;10.63;77.42;99087.06;1087899;54;20722;-85
2022/04/25 06:24:22;;;;;;;27.48;24.42;;;;;;;10.60;77.68;99093.53;1088194;54;20019;-84
2022/04/25 06:25:41;;;;;;;24.17;21.77;;;;;;;10.63;77.16;99097.75;1088404;54;20014;-87
2022/04/25 06:26:49;;;;;;;21.80;19.48;;;;;;;10.74;77.17;99098.22;1088350;54;20142;-86
2022/04/25 06:28:57;;;;;;;22.13;19.88;;;;;;;10.87;76.97;99099.53;1088312;54;20018;-83